Western Grove, Arkansas
Current Conditions -  °F | °C
As of 5:13 AM on Sunday 23 Nov 2014 (Local Time) from KHRO Reporting Station
Overcast Overcast  
Wind Chill: 56°   Ceiling: 1400
Heat Index: 56°   Visibility: 10mi
Dew Point: 54°   Wind: 12mph
Humidity: 93%   Direction: 170°S
Pressure: 29.65"   Gusts: NA
Location:  36.1°N, 92.95°W
Report Text: KHRO 231113Z AUTO 17010KT 10SM OVC014 13/12 A2965 RMK AO2 T01330122
Loading
Personal Weather Stations






























Interactive Weather Map New forecast layout! Learn more

10-Day Weather Forecast

Advertisements
Track Severe Weather on mobile